Wetterdaten: aktuell Montag, 10.12.2018 18:05
Datum Zeit Temp. A. Luft Gew. Boden Gew. Boden A. Feuchte A. Luftdruck Regen Wind Richtung Richtung Sonnenschein ET UV Solar Taupunkt Windchill Windben Empfang
10.12.2018 18:05 2.8 C 2.8 C 0.0 C 0.0 C 90 % 1022.8 hPa 0.0 l/m 8.3 km/h (2 Bft) SW 234 0 min 0.000 mm 0.0 UV-I 0 W/m 1.3 C 1.0 C 11.3 km/h (2 Bft) 100.00 %
10.12.2018 17:05 2.7 C 3.9 C 0.0 C 0.0 C 90 % 1022.8 hPa 0.0 l/m 7.9 km/h (2 Bft) SW 234 0 min 0.000 mm 0.0 UV-I 0 W/m 1.2 C 1.3 C 16.1 km/h (3 Bft) 97.46 %
10.12.2018 16:05 3.7 C 6.1 C 0.0 C 0.0 C 90 % 1023.1 hPa 0.0 l/m 8.5 km/h (2 Bft) W 259 0 min 0.025 mm 0.0 UV-I 16 W/m 2.2 C 1.8 C 11.3 km/h (2 Bft) 97.44 %
10.12.2018 15:05 3.9 C 5.6 C 0.0 C 0.0 C 92 % 1022.9 hPa 0.2 l/m 13.4 km/h (3 Bft) W-SW 244 0 min 0.026 mm 0.0 UV-I 47 W/m 2.7 C -1.4 C 24.1 km/h (4 Bft) 95.73 %
10.12.2018 14:05 3.9 C 6.7 C 0.0 C 0.0 C 91 % 1023.2 hPa 0.4 l/m 14.7 km/h (3 Bft) NW 305 0 min 0.025 mm 0.0 UV-I 42 W/m 2.6 C -2.1 C 22.5 km/h (4 Bft) 99.15 %
10.12.2018 13:05 4.2 C 7.2 C 0.0 C 0.0 C 91 % 1023.2 hPa 0.0 l/m 10.5 km/h (2 Bft) NW 311 0 min 0.051 mm 0.0 UV-I 72 W/m 2.9 C 0.8 C 20.9 km/h (4 Bft) 100.00 %
10.12.2018 12:05 4.1 C 6.7 C 0.0 C 0.0 C 92 % 1023.2 hPa 0.0 l/m 15.3 km/h (3 Bft) W-SW 248 0 min 0.051 mm 0.0 UV-I 58 W/m 2.9 C -2.2 C 24.1 km/h (4 Bft) 98.29 %
10.12.2018 11:05 4.2 C 6.7 C 0.0 C 0.0 C 92 % 1023.2 hPa 0.2 l/m 12.1 km/h (2 Bft) W 276 5 min 0.051 mm 0.0 UV-I 129 W/m 3.0 C -0.2 C 24.1 km/h (4 Bft) 98.15 %
10.12.2018 10:05 3.5 C 3.3 C 0.0 C 0.0 C 94 % 1022.9 hPa 0.0 l/m 10.7 km/h (2 Bft) W-SW 252 0 min 0.025 mm 0.0 UV-I 50 W/m 2.6 C -0.1 C 20.9 km/h (4 Bft) 98.29 %
10.12.2018 09:05 3.0 C 2.8 C 0.0 C 0.0 C 94 % 1022.2 hPa 0.6 l/m 6.8 km/h (2 Bft) W-SW 254 0 min 0.000 mm 0.0 UV-I 23 W/m 2.1 C 2.6 C 12.9 km/h (3 Bft) 97.44 %
10.12.2018 08:05 3.3 C 2.2 C 0.0 C 0.0 C 95 % 1021.6 hPa 0.2 l/m 13.0 km/h (3 Bft) W 268 0 min 0.000 mm 0.0 UV-I 0 W/m 2.6 C -1.8 C 24.1 km/h (4 Bft) 97.48 %
10.12.2018 07:05 3.3 C 2.2 C 0.0 C 0.0 C 95 % 1021.0 hPa 0.2 l/m 10.8 km/h (2 Bft) W-SW 239 0 min 0.000 mm 0.0 UV-I 0 W/m 2.6 C -0.4 C 19.3 km/h (3 Bft) 98.31 %
10.12.2018 06:05 3.0 C 2.2 C 0.0 C 0.0 C 95 % 1019.9 hPa 0.4 l/m 7.5 km/h (2 Bft) W 268 0 min 0.000 mm 0.0 UV-I 0 W/m 2.3 C 2.0 C 16.1 km/h (3 Bft) 100.00 %
10.12.2018 05:05 2.7 C 2.8 C 0.0 C 0.0 C 94 % 1019.8 hPa 1.2 l/m 5.7 km/h (1 Bft) W-SW 255 0 min 0.000 mm 0.0 UV-I 0 W/m 1.8 C 2.7 C 11.3 km/h (2 Bft) 99.10 %
10.12.2018 04:05 3.3 C 3.3 C 0.0 C 0.0 C 94 % 1019.2 hPa 1.2 l/m 5.5 km/h (1 Bft) W-NW 284 0 min 0.000 mm 0.0 UV-I 0 W/m 2.4 C 3.3 C 14.5 km/h (3 Bft) 96.84 %
10.12.2018 03:05 4.1 C 3.9 C 0.0 C 0.0 C 93 % 1018.7 hPa 0.2 l/m 14.1 km/h (3 Bft) W 264 0 min 0.000 mm 0.0 UV-I 0 W/m 3.1 C -1.5 C 20.9 km/h (4 Bft) 97.50 %
10.12.2018 02:05 4.5 C 3.9 C 0.0 C 0.0 C 92 % 1017.6 hPa 0.2 l/m 11.5 km/h (2 Bft) W-SW 244 0 min 0.000 mm 0.0 UV-I 0 W/m 3.3 C 0.5 C 20.9 km/h (4 Bft) 96.58 %
10.12.2018 01:05 5.2 C 3.9 C 0.0 C 0.0 C 93 % 1016.5 hPa 0.4 l/m 10.5 km/h (2 Bft) W-SW 248 0 min 0.000 mm 0.0 UV-I 0 W/m 4.2 C 1.9 C 16.1 km/h (3 Bft) 97.44 %
10.12.2018 00:05 4.8 C 3.9 C 0.0 C 0.0 C 93 % 1015.5 hPa 1.0 l/m 10.4 km/h (2 Bft) W-NW 292 0 min 0.000 mm 0.0 UV-I 0 W/m 3.8 C 1.6 C 19.3 km/h (3 Bft) 96.36 %
09.12.2018 23:05 5.3 C 3.9 C 0.0 C 0.0 C 94 % 1014.3 hPa 0.2 l/m 12.7 km/h (3 Bft) W-SW 252 0 min 0.000 mm 0.0 UV-I 0 W/m 4.4 C 0.7 C 24.1 km/h (4 Bft) 99.06 %
09.12.2018 22:05 4.8 C 4.4 C 0.0 C 0.0 C 93 % 1013.4 hPa 1.6 l/m 8.2 km/h (2 Bft) W 259 0 min 0.000 mm 0.0 UV-I 0 W/m 3.8 C 3.2 C 16.1 km/h (3 Bft) 99.15 %
09.12.2018 21:05 6.1 C 5.0 C 0.0 C 0.0 C 93 % 1012.4 hPa 0.4 l/m 12.3 km/h (3 Bft) W-SW 250 0 min 0.000 mm 0.0 UV-I 0 W/m 5.1 C 1.8 C 20.9 km/h (4 Bft) 100.00 %
09.12.2018 20:05 5.7 C 4.4 C 0.0 C 0.0 C 94 % 1011.0 hPa 0.2 l/m 14.1 km/h (3 Bft) W-SW 238 0 min 0.000 mm 0.0 UV-I 0 W/m 4.8 C 0.4 C 29.0 km/h (5 Bft) 98.29 %
09.12.2018 19:05 5.1 C 5.0 C 0.0 C 0.0 C 94 % 1009.7 hPa 0.0 l/m 12.4 km/h (3 Bft) W-SW 241 0 min 0.000 mm 0.0 UV-I 0 W/m 4.2 C 0.6 C 25.7 km/h (4 Bft) 100.00 %
09.12.2018 19:00 5.1 C 5.0 C 0.0 C 0.0 C 94 % 1009.6 hPa 0.0 l/m 13.3 km/h (3 Bft) SW 217 0 min 0.000 mm 0.0 UV-I 0 W/m 4.2 C 0.1 C 25.7 km/h (4 Bft) 100.00 %
_ Min-Zeit 17:15 06:00 19:00 19:00 15:55 19:00 - 04:35 - - - - - - 17:00 08:35 04:45 15:10
Minimum _ 2.6 C 2.2 C 0.0 C 0.0 C 89 % 1009.6 hPa - 2.7 km/h (1 Bft) - - - - - - 1.2 C -4.9 C 8.0 km/h (2 Bft) 93.22 %
_ Max-Zeit 20:55 11:10 19:00 19:00 01:40 13:20 21:15 01:45 - - 10:30 11:00 19:00 10:30 21:00 02:15 21:15 19:00
Maximum _ 6.1 C 7.2 C 0.0 C 0.0 C 98 % 1023.4 hPa 0.8 l/m 18.7 km/h
NW (3 Bft)
- - 5 min 0.051 mm 0.0 UV-I 154 W/m 5.2 C 4.4 C 43.5 km/h
N-NW (6 Bft)
100.00 %
Durchschnitt _ 4.1 C 4.4 C 0.0 C 0.0 C 93 % 1018.5 hPa #8.8 l/m 11.5 km/h (2 Bft) W-SW - #5 min. #0.254 mm 0.0 UV-I 58 W/m 3.1 C 0.2 C 22.0 km/h (4 Bft) 98.55 %